»·PEaware :: QXE515 KSEA-KPDX

QXE515 :: KSEA-KPDX

FLIGHT INFORMATION

Flight Status: Arrived
Operator:
Horizon Air
More flights by this operator :: More flights under this callsign
Pilot: Doug L. (8712)
Aircraft: DEHAVILLAND DASH 8 400
(DH8D)
More flights by this aircraft type
Origin: KSEA Seattle-Tacoma Intl
United States
Destination: KPDX Portland Intl
United States
More flights between these airports :: More routes between these airports
Route: ++SEA7+ BUWZO KRATR2
File this flight plan on PilotEdge
Remarks:
Altitude:
(Current/Filed)
17,000ft
Speed:
(Current/Filed)
330kts
Departed: 09-Jan-19 08:01 PM
Arrived: 09-Jan-19 08:40 PM
Distance/Time
Traveled:
112nm/0:39
Distance/Time
To Go:
Arrived

Flight Plot

Page will automatically refresh every two minutes.

Flight plan parsing failed; only flown route is shown


Map Options




Map Legend


Flown Route
Filed Route
Departure Airport
Arrival Airport
Navaid (VOR, NDB)
Fix

Horizontal Profiles

Position Reports

Time Latitude Longitude Heading Altitude Ground
Speed
09-Jan-19 19:31 47.445370 -122.304596 90 440ft 0kts
09-Jan-19 19:32 47.445370 -122.304596 90 440ft 0kts
09-Jan-19 19:33 47.445370 -122.304596 90 440ft 0kts
09-Jan-19 19:34 47.445370 -122.304596 90 440ft 0kts
09-Jan-19 19:35 47.445370 -122.304596 90 440ft 0kts
09-Jan-19 19:36 47.445370 -122.304596 90 440ft 0kts
09-Jan-19 19:37 47.445370 -122.304596 90 440ft 0kts
09-Jan-19 19:38 47.445370 -122.304596 90 440ft 0kts
09-Jan-19 19:39 47.445370 -122.304596 90 440ft 0kts
09-Jan-19 19:40 47.445370 -122.304596 90 440ft 0kts
09-Jan-19 19:41 47.445370 -122.304596 90 440ft 0kts
09-Jan-19 19:43 47.445370 -122.304596 90 440ft 0kts
09-Jan-19 19:44 47.445370 -122.304596 90 440ft 0kts
09-Jan-19 19:45 47.445370 -122.304596 90 440ft 0kts
09-Jan-19 19:46 47.445370 -122.304596 90 440ft 0kts
09-Jan-19 19:47 47.445370 -122.304596 90 440ft 0kts
09-Jan-19 19:48 47.445370 -122.304596 90 440ft 0kts
09-Jan-19 19:49 47.445339 -122.305071 72 440ft 2kts
09-Jan-19 19:50 47.444876 -122.305423 0 440ft 1kts
09-Jan-19 19:51 47.444831 -122.305424 0 440ft 0kts
09-Jan-19 19:52 47.444831 -122.305424 0 440ft 0kts
09-Jan-19 19:53 47.444915 -122.305423 0 440ft 0kts
09-Jan-19 19:54 47.444969 -122.305422 0 440ft 0kts
09-Jan-19 19:55 47.447124 -122.305903 346 440ft 18kts
09-Jan-19 19:56 47.455177 -122.306268 359 440ft 24kts
09-Jan-19 19:57 47.462477 -122.306201 0 440ft 4kts
09-Jan-19 19:58 47.463106 -122.306196 0 440ft 0kts
09-Jan-19 19:59 47.463422 -122.306211 347 440ft 8kts
09-Jan-19 20:00 47.463776 -122.306854 276 440ft 11kts
09-Jan-19 20:01 47.450138 -122.308062 181 593ft 133kts
09-Jan-19 20:02 47.410083 -122.311255 180 3008ft 165kts
09-Jan-19 20:02 47.361495 -122.312953 179 2974ft 227kts
09-Jan-19 20:04 47.292308 -122.313013 179 5232ft 190kts
09-Jan-19 20:05 47.249910 -122.311498 185 8969ft 143kts
09-Jan-19 20:05 47.217509 -122.311027 183 10968ft 140kts
09-Jan-19 20:06 47.176617 -122.310581 185 12759ft 147kts
09-Jan-19 20:08 47.127878 -122.310330 185 14656ft 151kts
09-Jan-19 20:08 47.091961 -122.310033 186 15914ft 155kts
09-Jan-19 20:09 47.047021 -122.309950 187 17008ft 181kts
09-Jan-19 20:10 46.986909 -122.310311 184 17028ft 249kts
09-Jan-19 20:11 46.913424 -122.309636 184 17022ft 285kts
09-Jan-19 20:12 46.832716 -122.309870 184 17022ft 304kts
09-Jan-19 20:13 46.749000 -122.309750 184 17024ft 313kts
09-Jan-19 20:14 46.663251 -122.309611 184 17027ft 314kts
09-Jan-19 20:15 46.578461 -122.309577 185 17034ft 311kts
09-Jan-19 20:16 46.493090 -122.309544 185 17044ft 310kts
09-Jan-19 20:17 46.408101 -122.309534 185 17054ft 310kts
09-Jan-19 20:18 46.325661 -122.309659 185 17063ft 316kts
09-Jan-19 20:19 46.239714 -122.319424 201 17073ft 311kts
09-Jan-19 20:20 46.163297 -122.361764 204 14745ft 297kts
09-Jan-19 20:21 46.089996 -122.402713 203 11807ft 283kts
09-Jan-19 20:22 46.022325 -122.439438 202 9682ft 251kts
09-Jan-19 20:23 45.961823 -122.472035 202 7740ft 232kts
09-Jan-19 20:24 45.911367 -122.514406 219 6507ft 202kts
09-Jan-19 20:25 45.870937 -122.564815 219 5558ft 204kts
09-Jan-19 20:26 45.829391 -122.617026 219 5004ft 191kts
09-Jan-19 20:27 45.788082 -122.668830 219 4992ft 209kts
09-Jan-19 20:28 45.757542 -122.734847 265 4978ft 206kts
09-Jan-19 20:29 45.770925 -122.814525 282 4988ft 227kts
09-Jan-19 20:30 45.797035 -122.899206 296 4982ft 245kts
09-Jan-19 20:31 45.789810 -122.973604 198 4979ft 218kts
09-Jan-19 20:32 45.741962 -122.940661 147 4973ft 203kts
09-Jan-19 20:33 45.703927 -122.884209 133 4842ft 196kts
09-Jan-19 20:34 45.674500 -122.823424 127 3238ft 180kts
09-Jan-19 20:35 45.651053 -122.766963 121 2278ft 153kts
09-Jan-19 20:36 45.630602 -122.714271 118 1459ft 145kts
09-Jan-19 20:37 45.612916 -122.666828 115 1009ft 135kts
09-Jan-19 20:38 45.594431 -122.619499 116 84ft 138kts
09-Jan-19 20:39 45.586713 -122.597227 31 37ft 1kts
09-Jan-19 20:40 45.586724 -122.597217 31 37ft 0kts
09-Jan-19 20:41 45.585921 -122.593101 129 37ft 7kts
09-Jan-19 20:42 45.585991 -122.592316 79 37ft 0kts

Navigation Log

Ident Type
Flight plan parsing failed, navigation log unavailable